Time;durP1;ratioP1;P1;durP2;ratioP2;P2;SDS_P1;SDS_P2;PMS_P1;PMS_P2;Temp;Humidity;BMP_temperature;BMP_pressure;BME280_temperature;BME280_humidity;BME280_pressure;Samples;Min_cycle;Max_cycle;Signal;HPM_P1;HPM_P2
2021/08/30 00:02:27;;;;;;;7.95;6.28;;;;;;;16.33;96.24;99913.45;2720893;87;20957;-65
2021/08/30 00:06:29;;;;;;;9.50;7.53;;;;;;;16.22;95.47;99903.92;2741067;87;20983;-65
2021/08/30 00:10:38;;;;;;;8.95;6.67;;;;;;;16.01;96.36;99902.63;2741286;86;21043;-63
2021/08/30 00:14:40;;;;;;;11.08;7.58;;;;;;;16.00;97.08;99906.32;2741223;87;21063;-66
2021/08/30 00:18:52;;;;;;;8.45;6.70;;;;;;;15.99;97.08;99912.17;2741126;87;20987;-66
2021/08/30 00:22:54;;;;;;;10.98;7.10;;;;;;;15.93;97.13;99916.07;2741233;87;20967;-64
2021/08/30 00:27:54;;;;;;;9.43;6.85;;;;;;;15.90;97.53;99919.06;2741173;87;21043;-64
2021/08/30 00:31:58;;;;;;;10.20;8.78;;;;;;;15.94;97.38;99919.91;2741242;86;21031;-65
2021/08/30 00:36:01;;;;;;;10.82;7.87;;;;;;;15.98;97.13;99915.05;2741051;86;20981;-66
2021/08/30 00:40:05;;;;;;;9.55;8.10;;;;;;;15.97;97.18;99914.20;2741267;86;21003;-66
2021/08/30 00:44:09;;;;;;;10.98;9.65;;;;;;;15.96;97.29;99904.48;2741138;87;21000;-64
2021/08/30 00:48:49;;;;;;;14.73;10.13;;;;;;;15.93;97.50;99902.14;2740968;83;21019;-65
2021/08/30 00:52:52;;;;;;;8.90;8.00;;;;;;;15.93;98.11;99895.95;2741108;86;20968;-65
2021/08/30 00:56:53;;;;;;;9.43;7.30;;;;;;;15.96;97.74;99900.45;2741128;86;21000;-65
2021/08/30 01:00:59;;;;;;;12.95;9.00;;;;;;;15.98;97.67;99907.00;2741117;86;21027;-65
2021/08/30 01:05:01;;;;;;;11.47;8.10;;;;;;;16.06;97.73;99908.31;2741442;87;20964;-64
2021/08/30 01:09:34;;;;;;;11.15;8.73;;;;;;;16.22;98.24;99895.87;2741107;86;21051;-66
2021/08/30 01:13:52;;;;;;;13.70;9.88;;;;;;;16.38;97.81;99899.84;2741223;87;20964;-67
2021/08/30 01:17:54;;;;;;;12.10;8.53;;;;;;;16.50;96.31;99904.33;2741136;86;20992;-65
2021/08/30 01:22:05;;;;;;;11.88;8.30;;;;;;;16.53;95.29;99906.66;2741156;86;21019;-65
2021/08/30 01:26:11;;;;;;;11.03;7.70;;;;;;;16.51;95.43;99912.70;2741144;86;20980;-65
2021/08/30 01:30:18;;;;;;;10.43;8.78;;;;;;;16.63;95.91;99913.16;2740780;86;20960;-64
2021/08/30 01:34:34;;;;;;;12.82;9.58;;;;;;;16.76;94.53;99921.17;2724453;87;21011;-66
2021/08/30 01:38:45;;;;;;;8.85;7.95;;;;;;;16.75;93.42;99912.78;2741221;87;20983;-65
2021/08/30 01:43:37;;;;;;;10.00;7.63;;;;;;;16.68;92.30;99910.78;2738788;86;20972;-65
2021/08/30 01:47:42;;;;;;;9.10;7.05;;;;;;;16.59;92.21;99909.65;2741238;86;20999;-65
2021/08/30 01:51:47;;;;;;;11.03;8.80;;;;;;;16.36;92.37;99909.92;2784402;85;20966;-65
2021/08/30 01:55:51;;;;;;;13.45;9.00;;;;;;;16.15;93.37;99910.99;2786966;85;21037;-65
2021/08/30 02:04:17;;;;;;;10.25;7.75;;;;;;;15.89;94.00;99908.00;2787427;85;21009;-67
2021/08/30 02:08:22;;;;;;;11.33;9.63;;;;;;;15.75;94.36;99906.34;2787394;85;21009;-65
2021/08/30 02:12:23;;;;;;;9.58;8.73;;;;;;;15.65;94.79;99921.74;2787180;85;21009;-64
2021/08/30 02:16:48;;;;;;;10.95;8.38;;;;;;;15.68;96.00;99920.91;2787296;85;21001;-64
2021/08/30 02:20:58;;;;;;;10.28;7.55;;;;;;;15.76;95.19;99914.71;2787331;85;21037;-65
2021/08/30 02:25:15;;;;;;;10.30;9.00;;;;;;;15.81;94.20;99917.72;2787582;85;20981;-65
2021/08/30 02:29:22;;;;;;;9.73;8.68;;;;;;;15.78;93.96;99922.57;2787583;85;20958;-64
2021/08/30 02:33:44;;;;;;;10.15;9.08;;;;;;;15.75;94.91;99923.77;2787368;85;21060;-67
2021/08/30 02:37:50;;;;;;;11.08;7.95;;;;;;;15.81;94.33;99913.69;2787406;85;20968;-65
2021/08/30 02:41:53;;;;;;;13.10;9.50;;;;;;;15.78;93.82;99912.70;2697904;85;21045;-65
2021/08/30 02:45:56;;;;;;;11.43;8.65;;;;;;;15.54;93.94;99919.75;2787446;85;20962;-68
2021/08/30 02:49:58;;;;;;;10.00;8.35;;;;;;;15.52;95.51;99920.91;2776517;84;21055;-65
2021/08/30 02:54:00;;;;;;;11.05;7.33;;;;;;;15.61;94.72;99928.45;2741226;87;20973;-66
2021/08/30 02:58:05;;;;;;;11.30;9.20;;;;;;;15.58;95.34;99926.11;2741330;86;20952;-64
2021/08/30 03:02:26;;;;;;;14.98;10.08;;;;;;;15.68;95.45;99922.74;2734437;85;20980;-67
2021/08/30 03:06:28;;;;;;;11.78;9.23;;;;;;;15.79;95.42;99919.73;2700667;85;21012;-65
2021/08/30 03:10:30;;;;;;;8.23;7.05;;;;;;;15.79;93.99;99919.73;2727139;87;21008;-65
2021/08/30 03:14:46;;;;;;;9.73;8.43;;;;;;;15.65;93.80;99922.59;2741254;86;21086;-65
2021/08/30 03:18:48;;;;;;;12.13;10.07;;;;;;;15.41;95.38;99918.06;2741360;87;20964;-62
2021/08/30 03:22:52;;;;;;;13.80;10.13;;;;;;;15.41;95.38;99918.06;2741186;86;21337;-66
2021/08/30 03:26:55;;;;;;;12.43;9.80;;;;;;;15.33;96.23;99920.72;2741393;86;21018;-67
2021/08/30 03:30:57;;;;;;;12.20;9.90;;;;;;;15.37;96.86;99922.08;2741354;87;21019;-64
2021/08/30 03:35:05;;;;;;;11.75;9.23;;;;;;;15.45;97.44;99919.39;2740445;86;20984;-61
2021/08/30 03:39:07;;;;;;;13.53;10.60;;;;;;;15.64;97.12;99920.07;2724154;87;21035;-61
2021/08/30 03:43:10;;;;;;;12.53;10.72;;;;;;;15.79;96.22;99923.75;2699928;86;20932;-61
2021/08/30 03:47:13;;;;;;;11.75;9.95;;;;;;;15.80;94.37;99918.72;2697010;87;20979;-62
2021/08/30 03:51:18;;;;;;;12.15;10.13;;;;;;;15.73;95.21;99923.09;2714508;84;21009;-61
2021/08/30 03:55:21;;;;;;;13.70;10.10;;;;;;;15.75;95.49;99924.25;2741134;87;21025;-62
2021/08/30 03:59:36;;;;;;;12.37;9.48;;;;;;;15.62;95.60;99935.48;2715142;87;21009;-63
2021/08/30 04:03:41;;;;;;;11.30;7.62;;;;;;;15.51;96.34;99950.06;2780978;85;21092;-61
2021/08/30 04:07:44;;;;;;;14.95;10.65;;;;;;;15.42;95.90;99945.20;2786921;85;21013;-62
2021/08/30 04:11:47;;;;;;;12.63;9.30;;;;;;;15.24;96.70;99946.17;2786896;85;21013;-60
2021/08/30 04:15:49;;;;;;;16.20;11.05;;;;;;;15.27;98.23;99939.66;2786798;85;20965;-61
2021/08/30 04:19:51;;;;;;;16.35;12.68;;;;;;;15.31;97.65;99945.02;2786974;85;20985;-61
2021/08/30 04:23:53;;;;;;;16.50;11.80;;;;;;;15.33;97.91;99944.34;2786757;85;21025;-62
2021/08/30 04:27:54;;;;;;;11.38;9.25;;;;;;;15.42;98.71;99945.20;2786904;85;20985;-64
2021/08/30 04:32:01;;;;;;;11.68;9.13;;;;;;;15.54;98.60;99934.49;2786881;85;20989;-62
2021/08/30 04:36:03;;;;;;;11.97;10.08;;;;;;;15.60;97.55;99936.16;2774179;84;21056;-61
2021/08/30 04:40:07;;;;;;;12.28;10.10;;;;;;;15.50;98.11;99933.13;2786885;85;21028;-62
2021/08/30 04:44:27;;;;;;;15.15;9.80;;;;;;;15.49;98.25;99926.09;2786700;85;21061;-63
2021/08/30 04:48:29;;;;;;;13.28;9.93;;;;;;;15.44;98.49;99927.10;2741220;86;21072;-61
2021/08/30 04:52:31;;;;;;;11.68;10.58;;;;;;;15.44;99.44;99923.08;2710921;85;21012;-61
2021/08/30 04:56:32;;;;;;;12.47;9.30;;;;;;;15.49;99.75;99916.70;2694483;88;20969;-62
2021/08/30 05:00:35;;;;;;;12.90;8.63;;;;;;;15.52;99.03;99920.91;2694575;88;21017;-61
2021/08/30 05:04:50;;;;;;;9.60;8.55;;;;;;;15.47;99.70;99925.42;2694413;88;21051;-62
2021/08/30 05:08:52;;;;;;;10.27;8.27;;;;;;;15.51;100.00;99929.44;2694726;88;21060;-61
2021/08/30 05:12:58;;;;;;;8.90;8.00;;;;;;;15.55;100.00;99941.53;2694547;88;21028;-62
2021/08/30 05:17:00;;;;;;;10.18;8.15;;;;;;;15.57;100.00;99944.02;2694597;88;21023;-62
2021/08/30 05:21:02;;;;;;;8.05;6.25;;;;;;;15.63;100.00;99946.55;2694453;88;21546;-63
2021/08/30 05:25:05;;;;;;;9.98;6.90;;;;;;;15.73;100.00;99932.48;2694420;87;21012;-64
2021/08/30 05:29:06;;;;;;;9.05;8.08;;;;;;;15.78;100.00;99936.83;2694640;88;20937;-61
2021/08/30 05:33:08;;;;;;;9.75;8.83;;;;;;;15.78;100.00;99963.64;2694491;88;20933;-60
2021/08/30 05:37:10;;;;;;;8.85;7.67;;;;;;;15.93;100.00;99953.63;2694486;88;20961;-61
2021/08/30 05:41:11;;;;;;;8.48;7.40;;;;;;;16.10;100.00;99961.13;2694435;88;21019;-61
2021/08/30 05:45:33;;;;;;;8.95;7.70;;;;;;;16.22;100.00;99953.56;2694442;88;20984;-61
2021/08/30 05:49:35;;;;;;;9.05;8.10;;;;;;;16.35;100.00;99949.00;2694591;88;21028;-61
2021/08/30 05:54:23;;;;;;;10.50;7.50;;;;;;;16.42;99.10;99956.19;2694112;86;21000;-62
2021/08/30 05:58:25;;;;;;;7.72;6.83;;;;;;;16.39;98.80;99955.69;2694333;88;21035;-61
2021/08/30 06:02:27;;;;;;;8.73;7.60;;;;;;;16.42;99.58;99948.66;2694448;88;21016;-60
2021/08/30 06:06:30;;;;;;;8.53;7.25;;;;;;;16.49;99.84;99942.92;2694448;88;21009;-61
2021/08/30 06:10:31;;;;;;;10.75;9.23;;;;;;;16.56;99.10;99943.89;2694396;88;21036;-61
2021/08/30 06:15:04;;;;;;;12.58;9.68;;;;;;;16.62;99.03;99940.20;2718315;87;21022;-61
2021/08/30 06:19:06;;;;;;;13.10;11.10;;;;;;;16.67;99.07;99946.70;2740699;86;20990;-63
2021/08/30 06:23:08;;;;;;;13.55;8.83;;;;;;;16.71;97.99;99944.52;2740855;86;20974;-61
2021/08/30 06:27:20;;;;;;;13.18;9.38;;;;;;;16.70;98.38;99939.66;2740689;87;20963;-62
2021/08/30 06:31:21;;;;;;;11.12;9.60;;;;;;;16.65;98.35;99936.64;2740872;86;21000;-61
2021/08/30 06:35:30;;;;;;;10.65;8.20;;;;;;;16.63;98.31;99941.35;2740874;87;20961;-61
2021/08/30 06:39:32;;;;;;;8.83;7.97;;;;;;;16.63;98.41;99949.93;2740879;86;20998;-61
2021/08/30 06:43:34;;;;;;;10.53;9.43;;;;;;;16.62;98.40;99946.39;2740656;87;21017;-62
2021/08/30 06:48:05;;;;;;;13.93;11.03;;;;;;;16.63;97.69;99947.25;2740751;87;20982;-61
2021/08/30 06:52:16;;;;;;;15.83;12.60;;;;;;;16.56;98.26;99936.36;2772372;85;21020;-62
2021/08/30 06:56:18;;;;;;;18.40;12.43;;;;;;;16.61;98.34;99934.50;2786860;85;20985;-60
2021/08/30 07:00:21;;;;;;;12.82;10.82;;;;;;;16.59;98.05;99931.13;2786613;85;21472;-60
2021/08/30 07:04:23;;;;;;;19.75;13.60;;;;;;;16.45;98.89;99934.03;2786837;85;20969;-63
2021/08/30 07:08:25;;;;;;;15.08;10.68;;;;;;;16.37;99.39;99939.78;2787152;85;21025;-61
2021/08/30 07:12:28;;;;;;;14.65;10.82;;;;;;;16.28;99.55;99942.13;2787007;85;20957;-60
2021/08/30 07:16:31;;;;;;;12.65;8.33;;;;;;;16.26;99.93;99954.89;2786876;85;20946;-60
2021/08/30 07:20:32;;;;;;;13.43;10.08;;;;;;;16.29;100.00;99955.88;2795408;85;21012;-60
2021/08/30 07:25:08;;;;;;;11.60;9.40;;;;;;;16.36;99.95;99954.20;2795405;85;21034;-61
2021/08/30 07:29:10;;;;;;;11.73;8.83;;;;;;;16.48;99.39;99945.77;2869696;83;20982;-61
2021/08/30 07:33:12;;;;;;;16.35;10.03;;;;;;;16.54;99.31;99939.73;2869749;83;20946;-61
2021/08/30 07:37:14;;;;;;;14.10;10.95;;;;;;;16.59;98.74;99945.41;2869738;82;20950;-60
2021/08/30 07:41:27;;;;;;;11.57;8.95;;;;;;;16.58;98.84;99950.44;2869732;83;20998;-61
2021/08/30 07:45:31;;;;;;;12.58;11.28;;;;;;;16.64;99.13;99957.80;2869764;83;20970;-61
2021/08/30 07:49:33;;;;;;;12.58;9.78;;;;;;;16.69;98.59;99967.50;2795519;85;20951;-60
2021/08/30 07:53:35;;;;;;;12.40;10.20;;;;;;;16.72;98.79;99970.87;2795773;85;21035;-61
2021/08/30 07:57:41;;;;;;;11.83;8.78;;;;;;;16.73;98.59;99964.49;2795613;84;21014;-61
2021/08/30 08:01:43;;;;;;;13.70;9.28;;;;;;;16.80;98.82;99969.48;2795458;85;21018;-61
2021/08/30 08:06:11;;;;;;;12.45;9.45;;;;;;;16.86;98.36;99968.78;2795595;85;21006;-60
2021/08/30 08:10:12;;;;;;;11.97;8.88;;;;;;;16.89;98.17;99968.42;2795463;85;20951;-60
2021/08/30 08:14:14;;;;;;;11.95;9.98;;;;;;;16.98;98.18;99971.45;2795611;85;21483;-60
2021/08/30 08:18:16;;;;;;;10.78;9.45;;;;;;;17.06;98.04;99973.75;2869953;83;20958;-63
2021/08/30 08:22:18;;;;;;;13.03;8.98;;;;;;;17.16;97.51;99973.04;2795489;84;21036;-60
2021/08/30 08:26:20;;;;;;;11.50;8.80;;;;;;;17.33;97.39;99977.80;2870008;82;21087;-62
2021/08/30 08:30:46;;;;;;;11.28;8.75;;;;;;;17.44;96.65;99975.20;2869878;83;20954;-61
2021/08/30 08:34:48;;;;;;;;;;;;;;;17.58;96.75;99970.90;2872463;83;20969;-60
2021/08/30 08:38:58;;;;;;;9.63;7.67;;;;;;;17.62;95.12;99978.96;2795645;83;20060;-61
2021/08/30 08:43:02;;;;;;;7.72;6.58;;;;;;;17.47;95.94;99978.06;2869415;82;20958;-60
2021/08/30 08:47:04;;;;;;;8.83;7.12;;;;;;;17.66;98.33;99974.04;2869774;83;20994;-60
2021/08/30 08:51:06;;;;;;;9.03;6.78;;;;;;;17.83;97.53;99970.20;2796087;83;20998;-61
2021/08/30 08:55:10;;;;;;;6.45;5.65;;;;;;;18.03;96.83;99975.11;2795528;82;20938;-63
2021/08/30 08:59:12;;;;;;;6.50;5.83;;;;;;;18.20;95.31;99975.80;2869322;83;20939;-61
2021/08/30 09:03:36;;;;;;;10.03;6.78;;;;;;;18.38;94.83;99971.39;2869084;83;21046;-60
2021/08/30 09:07:41;;;;;;;7.10;6.10;;;;;;;18.52;94.41;99963.52;2869349;83;20934;-60
2021/08/30 09:11:51;;;;;;;9.63;6.80;;;;;;;18.66;93.18;99965.88;2795598;84;20990;-61
2021/08/30 09:15:50;;;;;;;8.73;7.35;;;;;;;18.67;92.02;99958.97;2865114;83;20994;-60
2021/08/30 09:20:19;;;;;;;7.75;6.75;;;;;;;18.69;92.02;99956.91;2869463;83;20982;-62
2021/08/30 09:24:24;;;;;;;10.68;7.83;;;;;;;18.70;90.97;99955.89;2869349;83;21025;-61
2021/08/30 09:28:33;;;;;;;10.32;6.60;;;;;;;18.61;90.95;99952.14;2795714;82;21016;-61
2021/08/30 09:32:49;;;;;;;8.50;6.05;;;;;;;18.61;91.52;99956.17;2869400;83;21010;-61
2021/08/30 09:36:52;;;;;;;;;;;;;;;18.47;91.07;99956.48;2796855;85;21024;-61
2021/08/30 09:41:07;;;;;;;4.28;3.85;;;;;;;18.46;89.94;99955.66;2840072;84;20097;-60
2021/08/30 09:45:15;;;;;;;6.30;4.90;;;;;;;18.49;90.80;99954.47;2795559;85;20939;-60
2021/08/30 09:49:17;;;;;;;6.85;4.10;;;;;;;18.70;91.36;99946.96;2869459;83;20997;-60
2021/08/30 09:53:20;;;;;;;5.62;3.85;;;;;;;18.90;89.42;99948.57;2862359;82;20966;-61
2021/08/30 09:57:24;;;;;;;4.05;3.30;;;;;;;18.95;88.31;99950.17;2803281;82;20955;-62
2021/08/30 10:01:26;;;;;;;7.67;5.35;;;;;;;18.89;88.68;99947.39;2803309;82;20953;-62
2021/08/30 10:10:02;;;;;;;5.17;3.98;;;;;;;18.44;87.36;99951.47;2895007;80;21102;-61
2021/08/30 10:14:38;;;;;;;9.75;4.35;;;;;;;18.19;89.15;99953.09;2904567;82;20999;-61
2021/08/30 10:18:55;;;;;;;7.08;3.58;;;;;;;18.11;91.12;99949.97;2904952;80;20995;-62
2021/08/30 10:23:01;;;;;;;6.37;4.80;;;;;;;18.11;91.58;99950.82;2904690;81;21038;-62
2021/08/30 10:27:06;;;;;;;5.58;3.98;;;;;;;18.19;91.93;99949.05;2900744;80;20987;-62
2021/08/30 10:31:25;;;;;;;11.18;4.92;;;;;;;18.33;92.20;99944.20;2904525;80;21011;-60
2021/08/30 10:35:35;;;;;;;6.78;4.45;;;;;;;18.41;91.22;99944.62;2904762;82;21015;-60
2021/08/30 10:39:41;;;;;;;6.47;4.87;;;;;;;18.59;91.36;99942.06;2904925;82;20964;-61
2021/08/30 10:43:45;;;;;;;4.92;3.70;;;;;;;18.82;88.76;99938.73;2904224;80;20916;-61
2021/08/30 10:47:52;;;;;;;3.95;3.30;;;;;;;19.00;87.90;99938.02;2905014;80;20944;-61
2021/08/30 10:52:15;;;;;;;3.62;3.25;;;;;;;19.05;86.50;99953.09;2897909;82;20976;-60
2021/08/30 10:56:24;;;;;;;4.55;3.12;;;;;;;19.01;86.93;99947.27;2840532;84;20992;-60
2021/08/30 11:00:45;;;;;;;4.62;3.92;;;;;;;19.02;87.12;99953.48;2840838;84;21019;-61
2021/08/30 11:04:51;;;;;;;5.20;3.30;;;;;;;19.09;87.64;99949.02;2791052;85;20981;-61
2021/08/30 11:08:54;;;;;;;4.95;4.17;;;;;;;19.05;87.11;99955.80;2790339;84;21001;-61
2021/08/30 11:13:04;;;;;;;6.15;4.75;;;;;;;19.07;87.60;99962.67;2790865;85;20970;-60
2021/08/30 11:17:13;;;;;;;5.85;4.35;;;;;;;19.24;87.88;99964.61;2790711;85;20963;-62
2021/08/30 11:21:11;;;;;;;4.65;4.05;;;;;;;19.31;87.95;99965.22;2788550;85;21029;-62
2021/08/30 11:25:17;;;;;;;7.65;4.30;;;;;;;19.23;87.43;99965.64;2805151;83;21047;-61
2021/08/30 11:29:20;;;;;;;6.47;4.92;;;;;;;19.08;88.52;99963.00;2873731;82;21031;-60
2021/08/30 11:33:23;;;;;;;7.83;5.28;;;;;;;19.00;88.48;99960.92;2873670;83;20945;-60
2021/08/30 11:37:33;;;;;;;7.15;4.25;;;;;;;18.90;89.11;99962.05;2873694;82;20960;-60
2021/08/30 11:41:35;;;;;;;6.03;4.78;;;;;;;18.78;88.11;99963.53;2873767;81;20984;-61
2021/08/30 11:45:44;;;;;;;3.77;3.47;;;;;;;18.63;89.20;99957.64;2873843;83;21019;-60
2021/08/30 11:49:52;;;;;;;6.60;4.75;;;;;;;18.58;90.77;99964.11;2873691;82;21015;-61
2021/08/30 11:53:56;;;;;;;6.92;4.33;;;;;;;18.64;90.97;99964.70;2873775;81;21028;-60
2021/08/30 11:58:04;;;;;;;6.97;4.22;;;;;;;18.79;90.74;99960.67;2873648;83;21016;-60
2021/08/30 12:02:09;;;;;;;4.83;3.90;;;;;;;18.96;90.67;99959.08;2873721;83;20984;-60
2021/08/30 12:06:18;;;;;;;6.37;4.20;;;;;;;19.20;90.33;99961.98;2873952;83;21461;-61
2021/08/30 12:10:22;;;;;;;4.62;3.65;;;;;;;19.49;90.04;99949.44;2876459;83;20996;-61
2021/08/30 12:14:25;;;;;;;6.03;3.52;;;;;;;19.80;85.94;99948.77;2861368;83;21027;-61
2021/08/30 12:18:28;;;;;;;4.87;3.60;;;;;;;19.96;84.77;99943.62;2877788;81;21000;-60
2021/08/30 12:22:35;;;;;;;3.47;3.17;;;;;;;20.04;83.19;99949.39;2877807;81;20984;-61
2021/08/30 12:26:51;;;;;;;4.37;3.37;;;;;;;20.11;81.40;99937.61;2877814;83;21023;-61
2021/08/30 12:30:53;;;;;;;2.35;2.15;;;;;;;20.15;80.34;99939.41;2877556;83;20980;-60
2021/08/30 12:34:55;;;;;;;6.87;3.30;;;;;;;20.14;78.89;99937.72;2877655;81;20941;-61
2021/08/30 12:38:57;;;;;;;4.28;3.15;;;;;;;20.03;79.22;99955.83;2877614;82;20968;-62
2021/08/30 12:43:22;;;;;;;2.98;2.65;;;;;;;20.01;80.25;99938.99;2877557;82;20992;-62
2021/08/30 12:47:24;;;;;;;2.60;2.40;;;;;;;20.15;81.29;99924.56;2877812;82;21043;-61
2021/08/30 12:51:28;;;;;;;3.12;2.52;;;;;;;20.30;81.53;99928.48;2877560;81;20988;-61
2021/08/30 12:55:30;;;;;;;3.30;2.60;;;;;;;20.34;80.05;99925.70;2877523;81;21008;-60
2021/08/30 12:59:31;;;;;;;3.92;2.85;;;;;;;20.47;80.07;99917.36;2877480;81;21031;-62
2021/08/30 13:03:36;;;;;;;4.20;3.05;;;;;;;20.75;79.93;99920.48;2877674;82;20980;-59
2021/08/30 13:07:51;;;;;;;6.37;4.08;;;;;;;20.74;79.42;99914.77;2877836;81;20992;-61
2021/08/30 13:11:52;;;;;;;2.65;1.90;;;;;;;20.63;79.11;99916.18;2866959;83;21044;-61
2021/08/30 13:15:54;;;;;;;3.37;2.42;;;;;;;20.62;79.54;99908.58;2834064;84;21048;-61
2021/08/30 13:20:18;;;;;;;3.60;2.62;;;;;;;20.79;78.75;99910.93;2829233;81;21023;-60
2021/08/30 13:24:19;;;;;;;3.00;2.33;;;;;;;20.89;78.15;99907.38;2829308;83;21051;-59
2021/08/30 13:28:21;;;;;;;3.92;2.15;;;;;;;20.90;77.21;99906.34;2829386;83;21020;-61
2021/08/30 13:44:53;;;;;;;3.65;2.37;;;;;;;21.22;77.02;99890.91;2966075;78;70639;-71
2021/08/30 13:48:55;;;;;;;1.75;1.62;;;;;;;21.38;76.34;99885.61;3010015;78;21078;-71
2021/08/30 13:52:57;;;;;;;3.60;2.08;;;;;;;21.53;76.03;99886.25;2967940;79;20951;-71
2021/08/30 13:56:59;;;;;;;3.52;2.55;;;;;;;21.64;73.96;99883.97;2963828;79;21006;-71
2021/08/30 14:01:01;;;;;;;2.45;2.20;;;;;;;21.62;73.46;99879.29;2945666;80;21064;-70
2021/08/30 14:05:03;;;;;;;4.72;2.58;;;;;;;21.53;71.88;99878.13;2906148;80;21041;-70
2021/08/30 14:09:06;;;;;;;2.55;2.33;;;;;;;21.41;71.82;99873.02;2936135;80;20973;-70
2021/08/30 14:13:08;;;;;;;3.47;2.65;;;;;;;21.33;73.03;99876.78;2928408;80;21010;-70
2021/08/30 14:17:10;;;;;;;2.83;2.50;;;;;;;21.44;73.35;99868.57;2916700;81;21029;-70
2021/08/30 14:21:12;;;;;;;3.47;2.52;;;;;;;21.53;71.01;99874.61;2916723;80;21029;-71
2021/08/30 14:25:16;;;;;;;2.67;2.45;;;;;;;21.62;71.61;99877.40;2943219;79;20997;-70
2021/08/30 14:29:19;;;;;;;2.58;2.00;;;;;;;21.68;71.55;99879.83;2934250;79;21025;-70
2021/08/30 14:33:21;;;;;;;4.00;2.33;;;;;;;21.83;72.03;99875.03;2948801;80;20974;-70
2021/08/30 14:37:23;;;;;;;2.72;2.05;;;;;;;21.90;71.31;99874.18;2939324;80;20962;-69
2021/08/30 14:41:25;;;;;;;2.33;2.12;;;;;;;21.88;71.67;99869.50;2947335;79;21021;-69
2021/08/30 14:45:27;;;;;;;3.52;3.08;;;;;;;21.75;71.70;99867.11;2934970;80;21001;-70
2021/08/30 14:49:29;;;;;;;8.13;2.35;;;;;;;21.65;72.19;99877.55;2938587;80;21051;-70
2021/08/30 14:53:32;;;;;;;3.75;3.05;;;;;;;21.48;71.58;99873.88;2966194;79;21018;-70
2021/08/30 14:57:34;;;;;;;3.37;2.90;;;;;;;21.23;72.82;99877.19;2954593;80;21487;-69
2021/08/30 15:01:36;;;;;;;2.37;2.05;;;;;;;21.11;72.29;99876.94;2968119;80;20970;-69
2021/08/30 15:05:42;;;;;;;3.35;3.05;;;;;;;21.17;73.09;99868.53;2967983;80;20999;-70
2021/08/30 15:09:44;;;;;;;6.25;4.10;;;;;;;21.20;72.91;99874.88;2964896;80;20939;-70
2021/08/30 15:13:45;;;;;;;2.42;2.20;;;;;;;21.22;74.05;99872.83;2942844;80;20981;-71
2021/08/30 15:17:48;;;;;;;5.58;2.70;;;;;;;21.29;74.51;99867.93;2916857;81;20978;-71
2021/08/30 15:21:51;;;;;;;2.27;2.08;;;;;;;21.44;74.37;99868.57;2964482;80;21368;-73
2021/08/30 15:25:53;;;;;;;3.72;2.35;;;;;;;21.55;73.26;99868.46;2984700;78;20976;-72
2021/08/30 15:29:54;;;;;;;4.45;2.60;;;;;;;21.69;73.82;99859.84;2995412;79;21051;-71
2021/08/30 15:33:57;;;;;;;2.80;2.25;;;;;;;21.80;72.68;99855.13;2973046;79;21334;-70
2021/08/30 15:38:00;;;;;;;4.90;2.37;;;;;;;21.94;72.02;99859.17;2904643;80;31214;-70
2021/08/30 15:42:04;;;;;;;1.32;1.22;;;;;;;22.01;71.59;99855.95;2966858;79;21369;-71
2021/08/30 15:46:06;;;;;;;2.77;1.82;;;;;;;22.04;69.51;99851.45;2887968;81;21472;-71
2021/08/30 15:50:09;;;;;;;2.50;1.90;;;;;;;22.11;69.00;99850.09;2916828;81;21005;-70
2021/08/30 15:54:11;;;;;;;2.15;1.87;;;;;;;22.13;68.69;99859.34;2954505;79;21031;-70
2021/08/30 15:58:12;;;;;;;3.55;3.02;;;;;;;22.12;69.18;99857.16;2994285;78;20999;-69
2021/08/30 16:02:14;;;;;;;2.12;1.75;;;;;;;22.00;68.80;99856.96;2994201;78;21003;-69
2021/08/30 16:06:17;;;;;;;3.65;2.05;;;;;;;21.93;69.42;99860.22;2995068;78;21063;-70
2021/08/30 16:10:19;;;;;;;3.42;2.22;;;;;;;21.87;69.95;99855.66;2994539;79;20980;-71
2021/08/30 16:14:21;;;;;;;2.92;2.25;;;;;;;21.88;70.27;99864.91;2995527;79;21007;-69
2021/08/30 16:18:23;;;;;;;3.45;2.60;;;;;;;21.94;70.17;99856.47;2963508;79;21017;-69
2021/08/30 16:22:25;;;;;;;2.25;1.95;;;;;;;21.97;70.17;99853.33;2963992;79;21018;-72
2021/08/30 16:26:27;;;;;;;4.95;2.87;;;;;;;21.91;70.27;99858.25;2998398;79;21230;-70
2021/08/30 16:30:29;;;;;;;3.20;2.87;;;;;;;21.68;70.92;99858.17;2939075;79;21310;-69
2021/08/30 16:34:31;;;;;;;2.17;1.98;;;;;;;21.51;71.04;99857.22;2945394;78;21425;-69
2021/08/30 16:38:33;;;;;;;4.17;2.27;;;;;;;21.43;71.59;99855.23;2935279;78;21014;-69
2021/08/30 16:42:36;;;;;;;2.75;2.10;;;;;;;21.33;72.84;99851.59;2952125;80;21018;-69
2021/08/30 16:46:37;;;;;;;5.15;2.87;;;;;;;21.35;73.05;99854.41;2952399;80;20986;-69
2021/08/30 16:50:39;;;;;;;1.82;1.40;;;;;;;21.33;73.10;99852.95;2967964;80;20982;-69
2021/08/30 16:54:41;;;;;;;2.27;2.00;;;;;;;21.30;72.92;99860.12;2991023;77;20986;-69
2021/08/30 16:58:43;;;;;;;3.05;2.30;;;;;;;21.20;72.97;99854.59;3021858;78;21041;-69
2021/08/30 17:02:45;;;;;;;2.80;2.47;;;;;;;21.05;72.77;99853.97;3021938;78;20971;-69
2021/08/30 17:06:46;;;;;;;8.90;3.77;;;;;;;20.88;74.33;99860.27;2976230;79;20989;-70
2021/08/30 17:10:48;;;;;;;13.25;4.85;;;;;;;20.62;77.31;99876.16;2967441;80;21440;-72
2021/08/30 17:14:50;;;;;;;5.80;3.00;;;;;;;20.31;83.92;99863.14;2966867;79;21030;-70
2021/08/30 17:18:52;;;;;;;11.70;5.60;;;;;;;20.05;84.20;99853.88;2966282;79;20982;-70
2021/08/30 17:22:54;;;;;;;2.47;2.27;;;;;;;19.89;86.05;99852.30;2997100;79;20986;-71
2021/08/30 17:26:56;;;;;;;5.28;3.00;;;;;;;19.55;83.75;99855.59;2957149;79;20930;-71
2021/08/30 17:30:58;;;;;;;4.35;3.40;;;;;;;19.22;85.89;99858.01;2939825;81;20972;-71
2021/08/30 17:35:00;;;;;;;2.65;1.95;;;;;;;19.11;88.40;99863.41;2939477;81;20992;-71
2021/08/30 17:39:02;;;;;;;5.45;3.00;;;;;;;19.09;89.69;99862.77;2938783;81;21087;-71
2021/08/30 17:43:04;;;;;;;3.60;2.12;;;;;;;19.11;90.46;99862.05;2947492;80;21034;-71
2021/08/30 17:47:06;;;;;;;6.78;3.45;;;;;;;19.12;90.83;99863.72;2976475;79;21006;-71
2021/08/30 17:51:07;;;;;;;4.58;3.08;;;;;;;19.14;92.22;99857.63;2994128;79;21485;-71
2021/08/30 17:55:09;;;;;;;3.00;2.70;;;;;;;19.16;91.96;99859.61;2990032;79;20987;-71
2021/08/30 17:59:11;;;;;;;4.33;3.85;;;;;;;19.20;93.06;99856.02;3001742;78;20923;-71
2021/08/30 18:03:14;;;;;;;6.95;3.60;;;;;;;19.19;92.41;99862.44;2966469;79;20984;-71
2021/08/30 18:07:16;;;;;;;8.58;3.60;;;;;;;19.20;92.90;99866.28;2941067;79;20985;-71
2021/08/30 18:11:17;;;;;;;5.75;2.95;;;;;;;19.22;93.58;99866.91;2984117;79;20946;-71
2021/08/30 18:15:21;;;;;;;6.67;4.05;;;;;;;19.19;93.25;99868.66;2981096;79;21007;-71
2021/08/30 18:19:23;;;;;;;6.62;3.70;;;;;;;19.09;91.73;99873.55;3003251;79;20993;-71
2021/08/30 18:23:25;;;;;;;5.03;4.12;;;;;;;18.96;91.51;99876.38;2958487;80;21019;-70
2021/08/30 18:27:26;;;;;;;4.90;4.05;;;;;;;18.91;92.18;99888.75;2978845;80;20971;-70
2021/08/30 18:31:28;;;;;;;4.65;2.92;;;;;;;18.86;93.32;99883.92;2979117;80;20972;-70
2021/08/30 18:35:30;;;;;;;4.12;3.75;;;;;;;18.90;94.59;99887.94;2978969;80;20944;-70
2021/08/30 18:39:32;;;;;;;3.70;3.02;;;;;;;18.92;94.34;99891.27;2943529;80;20993;-71
2021/08/30 18:43:34;;;;;;;5.72;4.08;;;;;;;18.83;92.81;99891.05;2901999;82;20987;-70
2021/08/30 18:47:35;;;;;;;7.22;4.50;;;;;;;18.61;93.05;99891.53;2905642;80;20995;-72
2021/08/30 18:51:38;;;;;;;7.55;4.40;;;;;;;18.39;93.59;99887.43;2948251;80;20979;-71
2021/08/30 18:55:39;;;;;;;8.23;6.33;;;;;;;18.19;94.55;99880.41;2965289;80;20959;-71
2021/08/30 18:59:41;;;;;;;6.15;5.55;;;;;;;17.98;95.21;99883.30;2952932;80;20991;-71
2021/08/30 19:03:43;;;;;;;5.20;4.37;;;;;;;17.80;95.92;99885.02;2921609;80;20970;-71
2021/08/30 19:07:45;;;;;;;6.05;4.22;;;;;;;17.66;96.09;99882.59;2896427;82;20985;-71
2021/08/30 19:11:47;;;;;;;5.65;4.45;;;;;;;17.49;96.30;99884.11;2902983;80;20980;-71
2021/08/30 19:15:49;;;;;;;13.32;6.62;;;;;;;17.32;96.71;99874.50;2896778;82;20969;-72
2021/08/30 19:19:51;;;;;;;9.65;7.50;;;;;;;17.16;97.68;99866.89;2919631;80;21010;-71
2021/08/30 19:23:53;;;;;;;6.90;5.30;;;;;;;17.10;98.03;99871.64;2915653;80;20993;-71
2021/08/30 19:27:56;;;;;;;5.97;4.75;;;;;;;17.04;98.33;99868.31;2896811;82;20978;-70
2021/08/30 19:31:58;;;;;;;7.05;5.70;;;;;;;16.95;98.45;99872.37;2896988;82;20997;-71